Terminal Aerodrome Forecast
Issued by NWS

Home | Current Version | Previous Version | Graphics & Text | Print | Product List | Glossary On
Versions: 1 2 3 4 5 6 7 8 9 10 11 12 13 14 15 16 17 18 19 20 21 22 23 24 25
000
FTUS43 KLOT 240500
TAFDPA
TAF
KDPA 240533Z 2406/2506 34004KT P6SM OVC100
     FM241000 36006KT 6SM BR VCSH OVC050
     FM241400 36013G22KT 4SM -RA BR SCT008 OVC015
     FM241800 33014G25KT 3SM -RASN BR OVC006
      TEMPO 2418/2421 1SM -SN BR
     FM250000 28014KT 3SM BR OVC007=

USA.gov is the U.S. government's official web portal to all federal, state and local government web resources and services.